Hood River, OR

8:32 PM PDT on September 22, 2014 (GMT -0700)
MesoWest Hood River Airport AWOS OR US PDTWFO | Change Station
CLOSE
Current Station
Personal Weather Station
Location: Hood River, OR
Elevation: 629 ft
Nearby Weather Stations
Active Advisory: Special Statement

Elev 629 ft 45.67 °N, 121.54 °W | Updated 53 minutes ago

Partly Cloudy
Partly Cloudy
66 °F
Feels Like 66 °F
N
3
Wind Variable Wind from WSW
Gusts 0.0 mph

Today
High -- | Low -- °F
--% Chance of Precip.
Yesterday
High -- | Low -- °F
Precip. -- in
6:53 AM 7:03 PM
Waning Crescent, 1% visible
Pressure 29.86 in
Visibility 10.0 miles
Clouds Clear
Dew Point 52 °F
Humidity 60%
Rainfall -999.00 in
Snow Depth 0 in , 0 in , 0 in
UV 0 out of 12
Pollen 2.20 out of 12
Air Quality Not available.
Flu Activity Not available.
METAR KDLS 230253Z AUTO 25008KT 10SM CLR 23/09 A2986 RMK AO2 SLP111 T02280094 53003

More Conditions Fewer Conditions

Pressure 29.86 in
Visibility 10.0 miles
Clouds Clear
Dew Point 52 °F
Humidity 60%
Rainfall -999.00 in
Snow Depth 0 in , 0 in , 0 in
UV 0 out of 12
Pollen 2.20 out of 12
Air Quality Not available.
Flu Activity Not available.
METAR KDLS 230253Z AUTO 25008KT 10SM CLR 23/09 A2986 RMK AO2 SLP111 T02280094 53003

More Conditions Fewer Conditions

10-Day Weather Forecast

Almanac

Astronomy

Sep. 22, 2014 Rise Set
Actual Time 6:53 AM PDT 7:03 PM PDT
Civil Twilight 6:23 AM PDT 7:33 PM PDT
Nautical Twilight 5:48 AM PDT 8:07 PM PDT
Astronomical Twilight 5:12 AM PDT 8:43 PM PDT
Moon 5:23 AM PDT (9/22) 6:15 PM PDT (9/22)
Length of Visible Light 13h 09m
Length of Day
12h 10m
Tomorrow will be 3m 12s shorter.
Waning Crescent, 1% of the Moon is Illuminated
Today
Waning Crescent
Sep 24
New
Oct 1
First Quarter
Oct 8
Full
Oct 15
Last Quarter

Today's Extremes

State Highs State Lows

Community

WunderPhotos

Upload Photos

1,755,604 photos uploaded!

Nearby

Snow Depth

Station Depth Elevation
Sevenmile Marsh 0 in 6200 ft
Red Hill 0 in 4400 ft
Peavine Ridge 0 in 3500 ft
Lucky Strike 2 in 5050 ft
Cold Springs Camp 0 in 6100 ft

Earthquake Activity

City Distance Mag. Time & Date
No recent earthquake activity has been reported nearby.
Minimum magnitude displayed is 2.5.

Coastal Water Temperatures

Place Temperature
No Stations Reporting

Nearby Weather Stations